Time,TemperatureF,DewpointF,PressureIn,WindDirection,WindDirectionDegrees,WindSpeedMPH,WindSpeedGustMPH,Humidity,HourlyPrecipIn,Conditions,Clouds,dailyrainin,SoftwareType,DateUTC
2013-09-21 00:00:00,81.4,79.5,29.82,North,32767,0.0,0.0,94,0.00,,,0.00,Wunderground v.1.15,2013-09-21 05:00:00,
2013-09-21 00:05:00,81.6,79.7,29.82,North,32767,0.0,0.0,94,0.00,,,0.00,Wunderground v.1.15,2013-09-21 05:05:00,
2013-09-21 00:10:00,81.6,79.7,29.82,North,32767,0.0,0.0,94,0.00,,,0.00,Wunderground v.1.15,2013-09-21 05:10:00,
2013-09-21 00:15:00,81.6,79.7,29.81,North,32767,0.0,0.0,94,0.00,,,0.00,Wunderground v.1.15,2013-09-21 05:15:00,
2013-09-21 00:20:00,81.6,79.4,29.81,North,32767,0.0,0.0,93,0.00,,,0.00,Wunderground v.1.15,2013-09-21 05:20:00,
2013-09-21 00:25:00,81.7,79.5,29.81,North,32767,0.0,0.0,93,0.00,,,0.00,Wunderground v.1.15,2013-09-21 05:25:00,
2013-09-21 00:30:00,81.7,79.5,29.81,North,32767,0.0,0.0,93,0.00,,,0.00,Wunderground v.1.15,2013-09-21 05:30:00,
2013-09-21 00:35:00,81.8,79.6,29.81,North,32767,0.0,0.0,93,0.00,,,0.00,Wunderground v.1.15,2013-09-21 05:35:00,
2013-09-21 00:40:00,81.7,79.5,29.81,North,32767,0.0,0.0,93,0.00,,,0.00,Wunderground v.1.15,2013-09-21 05:40:00,
2013-09-21 00:45:00,81.7,79.5,29.81,North,32767,0.0,0.0,93,0.00,,,0.00,Wunderground v.1.15,2013-09-21 05:45:00,
2013-09-21 00:50:00,81.7,79.5,29.81,North,32767,0.0,0.0,93,0.00,,,0.00,Wunderground v.1.15,2013-09-21 05:50:00,
2013-09-21 00:55:00,81.6,79.4,29.81,North,32767,0.0,0.0,93,0.00,,,0.00,Wunderground v.1.15,2013-09-21 05:55:00,
2013-09-21 01:00:00,81.7,79.5,29.81,North,32767,0.0,0.0,93,0.00,,,0.00,Wunderground v.1.15,2013-09-21 06:00:00,
2013-09-21 01:05:00,81.6,79.4,29.81,North,32767,0.0,0.0,93,0.00,,,0.00,Wunderground v.1.15,2013-09-21 06:05:00,
2013-09-21 01:15:00,81.5,78.9,29.81,North,32767,0.0,0.0,92,0.00,,,0.00,Wunderground v.1.15,2013-09-21 06:15:00,
2013-09-21 01:20:00,81.5,78.9,29.81,North,32767,0.0,0.0,92,0.00,,,0.00,Wunderground v.1.15,2013-09-21 06:20:00,
2013-09-21 01:25:00,81.6,79.4,29.81,North,32767,0.0,0.0,93,0.00,,,0.00,Wunderground v.1.15,2013-09-21 06:25:00,
2013-09-21 01:30:00,81.6,79.0,29.81,North,32767,0.0,0.0,92,0.00,,,0.00,Wunderground v.1.15,2013-09-21 06:30:00,
2013-09-21 01:35:00,81.6,79.0,29.81,North,32767,0.0,0.0,92,0.00,,,0.00,Wunderground v.1.15,2013-09-21 06:35:00,
2013-09-21 01:40:00,81.7,79.1,29.81,North,32767,0.0,0.0,92,0.00,,,0.00,Wunderground v.1.15,2013-09-21 06:40:00,
2013-09-21 01:45:00,81.8,79.2,29.81,North,32767,0.0,0.0,92,0.00,,,0.00,Wunderground v.1.15,2013-09-21 06:45:00,
2013-09-21 01:50:00,81.9,79.3,29.80,North,32767,0.0,0.0,92,0.00,,,0.00,Wunderground v.1.15,2013-09-21 06:50:00,
2013-09-21 01:55:00,81.9,79.3,29.80,North,32767,0.0,0.0,92,0.00,,,0.00,Wunderground v.1.15,2013-09-21 06:55:00,
2013-09-21 02:00:00,82.0,79.4,29.79,North,32767,0.0,0.0,92,0.00,,,0.00,Wunderground v.1.15,2013-09-21 07:00:00,
2013-09-21 02:10:00,82.0,79.1,29.79,North,32767,0.0,0.0,91,0.00,,,0.00,Wunderground v.1.15,2013-09-21 07:10:00,
2013-09-21 02:15:00,82.0,79.4,29.79,North,32767,0.0,0.0,92,0.00,,,0.00,Wunderground v.1.15,2013-09-21 07:15:00,
2013-09-21 02:20:00,82.0,79.4,29.79,North,32767,0.0,0.0,92,0.00,,,0.00,Wunderground v.1.15,2013-09-21 07:20:00,
2013-09-21 02:25:00,82.1,79.5,29.79,North,32767,0.0,0.0,92,0.00,,,0.00,Wunderground v.1.15,2013-09-21 07:25:00,
2013-09-21 02:30:00,82.1,79.5,29.79,North,32767,0.0,0.0,92,0.00,,,0.00,Wunderground v.1.15,2013-09-21 07:30:00,
2013-09-21 02:35:00,82.1,79.5,29.79,North,32767,0.0,0.0,92,0.00,,,0.00,Wunderground v.1.15,2013-09-21 07:35:00,
2013-09-21 02:40:00,82.1,79.2,29.78,North,32767,0.0,0.0,91,0.00,,,0.00,Wunderground v.1.15,2013-09-21 07:40:00,
2013-09-21 02:45:00,82.1,79.2,29.78,North,32767,0.0,0.0,91,0.00,,,0.00,Wunderground v.1.15,2013-09-21 07:45:00,
2013-09-21 02:50:00,82.1,79.5,29.79,North,32767,0.0,0.0,92,0.00,,,0.00,Wunderground v.1.15,2013-09-21 07:50:00,
2013-09-21 02:55:00,82.1,79.2,29.78,North,32767,0.0,0.0,91,0.00,,,0.00,Wunderground v.1.15,2013-09-21 07:55:00,
2013-09-21 03:00:00,82.2,79.6,29.78,North,32767,0.0,0.0,92,0.00,,,0.00,Wunderground v.1.15,2013-09-21 08:00:00,
2013-09-21 03:05:00,82.1,79.2,29.78,North,32767,0.0,0.0,91,0.00,,,0.00,Wunderground v.1.15,2013-09-21 08:05:00,
2013-09-21 03:10:00,82.1,79.5,29.77,North,32767,0.0,0.0,92,0.00,,,0.00,Wunderground v.1.15,2013-09-21 08:10:00,
2013-09-21 03:15:00,82.1,79.5,29.78,North,32767,0.0,0.0,92,0.00,,,0.00,Wunderground v.1.15,2013-09-21 08:15:00,
2013-09-21 03:20:00,82.1,79.5,29.78,North,32767,0.0,0.0,92,0.00,,,0.00,Wunderground v.1.15,2013-09-21 08:20:00,
2013-09-21 03:25:00,82.1,79.5,29.77,North,32767,0.0,0.0,92,0.00,,,0.00,Wunderground v.1.15,2013-09-21 08:25:00,
2013-09-21 03:30:00,82.1,79.5,29.77,North,32767,0.0,0.0,92,0.00,,,0.00,Wunderground v.1.15,2013-09-21 08:30:00,
2013-09-21 03:35:00,82.1,79.5,29.77,North,32767,0.0,0.0,92,0.00,,,0.00,Wunderground v.1.15,2013-09-21 08:35:00,
2013-09-21 03:40:00,82.1,79.5,29.77,North,32767,0.0,0.0,92,0.00,,,0.00,Wunderground v.1.15,2013-09-21 08:40:00,
2013-09-21 03:45:00,82.2,79.6,29.77,North,32767,0.0,0.0,92,0.00,,,0.00,Wunderground v.1.15,2013-09-21 08:45:00,
2013-09-21 03:50:00,82.2,79.6,29.77,North,32767,0.0,0.0,92,0.00,,,0.00,Wunderground v.1.15,2013-09-21 08:50:00,
2013-09-21 03:55:00,82.2,79.6,29.77,North,32767,0.0,0.0,92,0.00,,,0.00,Wunderground v.1.15,2013-09-21 08:55:00,
2013-09-21 04:00:00,82.2,80.0,29.76,North,32767,0.0,0.0,93,0.00,,,0.00,Wunderground v.1.15,2013-09-21 09:00:00,
2013-09-21 04:05:00,82.2,79.6,29.77,North,32767,0.0,0.0,92,0.00,,,0.00,Wunderground v.1.15,2013-09-21 09:05:00,
2013-09-21 04:10:00,82.1,79.5,29.76,North,32767,0.0,0.0,92,0.00,,,0.00,Wunderground v.1.15,2013-09-21 09:10:00,
2013-09-21 04:15:00,82.2,79.6,29.76,North,32767,0.0,0.0,92,0.00,,,0.00,Wunderground v.1.15,2013-09-21 09:15:00,
2013-09-21 04:20:00,82.2,79.6,29.76,North,32767,0.0,0.0,92,0.00,,,0.00,Wunderground v.1.15,2013-09-21 09:20:00,
2013-09-21 04:25:00,82.2,79.6,29.76,North,32767,0.0,0.0,92,0.00,,,0.00,Wunderground v.1.15,2013-09-21 09:25:00,
2013-09-21 04:30:00,82.1,79.5,29.76,North,32767,0.0,0.0,92,0.00,,,0.00,Wunderground v.1.15,2013-09-21 09:30:00,
2013-09-21 04:35:00,82.1,79.5,29.76,North,32767,0.0,0.0,92,0.00,,,0.00,Wunderground v.1.15,2013-09-21 09:35:00,
2013-09-21 04:40:00,82.0,79.4,29.76,North,32767,0.0,0.0,92,0.00,,,0.00,Wunderground v.1.15,2013-09-21 09:40:00,
2013-09-21 04:45:00,82.0,79.8,29.77,North,32767,0.0,0.0,93,0.00,,,0.00,Wunderground v.1.15,2013-09-21 09:45:00,
2013-09-21 04:50:00,82.1,79.9,29.77,North,32767,0.0,0.0,93,0.00,,,0.00,Wunderground v.1.15,2013-09-21 09:50:00,
2013-09-21 04:55:00,82.1,79.5,29.77,North,32767,0.0,0.0,92,0.00,,,0.00,Wunderground v.1.15,2013-09-21 09:55:00,
2013-09-21 05:00:00,82.1,79.5,29.77,North,32767,0.0,0.0,92,0.00,,,0.00,Wunderground v.1.15,2013-09-21 10:00:00,
2013-09-21 05:05:00,82.2,79.6,29.77,North,32767,0.0,0.0,92,0.00,,,0.00,Wunderground v.1.15,2013-09-21 10:05:00,
2013-09-21 05:10:00,82.2,79.6,29.77,North,32767,0.0,0.0,92,0.00,,,0.00,Wunderground v.1.15,2013-09-21 10:10:00,
2013-09-21 05:15:00,82.2,79.3,29.77,North,32767,0.0,0.0,91,0.00,,,0.00,Wunderground v.1.15,2013-09-21 10:15:00,
2013-09-21 05:20:00,82.2,79.3,29.77,North,32767,0.0,0.0,91,0.00,,,0.00,Wunderground v.1.15,2013-09-21 10:20:00,
2013-09-21 05:25:00,82.3,79.7,29.77,North,32767,0.0,0.0,92,0.00,,,0.00,Wunderground v.1.15,2013-09-21 10:25:00,
2013-09-21 05:30:00,82.2,79.3,29.77,North,32767,0.0,0.0,91,0.00,,,0.00,Wunderground v.1.15,2013-09-21 10:30:00,
2013-09-21 05:35:00,82.2,79.0,29.77,North,32767,0.0,0.0,90,0.00,,,0.00,Wunderground v.1.15,2013-09-21 10:35:00,
2013-09-21 05:40:00,82.2,79.3,29.77,North,32767,0.0,0.0,91,0.00,,,0.00,Wunderground v.1.15,2013-09-21 10:40:00,
2013-09-21 05:45:00,82.2,79.3,29.77,North,32767,0.0,0.0,91,0.00,,,0.00,Wunderground v.1.15,2013-09-21 10:45:00,
2013-09-21 05:50:00,82.2,79.3,29.77,North,32767,0.0,0.0,91,0.00,,,0.00,Wunderground v.1.15,2013-09-21 10:50:00,
2013-09-21 05:55:00,82.2,79.6,29.77,North,32767,0.0,0.0,92,0.00,,,0.00,Wunderground v.1.15,2013-09-21 10:55:00,
2013-09-21 06:00:00,82.2,79.6,29.77,North,32767,0.0,0.0,92,0.00,,,0.00,Wunderground v.1.15,2013-09-21 11:00:00,
2013-09-21 06:05:00,82.2,79.3,29.77,North,32767,0.0,0.0,91,0.00,,,0.00,Wunderground v.1.15,2013-09-21 11:05:00,
2013-09-21 06:10:00,82.2,79.6,29.77,North,32767,0.0,0.0,92,0.00,,,0.00,Wunderground v.1.15,2013-09-21 11:10:00,
2013-09-21 06:15:00,82.1,79.2,29.77,North,32767,0.0,0.0,91,0.00,,,0.00,Wunderground v.1.15,2013-09-21 11:15:00,
2013-09-21 06:20:00,82.2,79.6,29.76,North,32767,0.0,0.0,92,0.00,,,0.00,Wunderground v.1.15,2013-09-21 11:20:00,
2013-09-21 06:25:00,82.1,79.2,29.76,North,32767,0.0,0.0,91,0.00,,,0.00,Wunderground v.1.15,2013-09-21 11:25:00,
2013-09-21 06:30:00,82.1,79.2,29.77,North,32767,0.0,0.0,91,0.00,,,0.00,Wunderground v.1.15,2013-09-21 11:30:00,
2013-09-21 06:40:00,82.1,79.2,29.77,North,32767,0.0,0.0,91,0.00,,,0.00,Wunderground v.1.15,2013-09-21 11:40:00,
2013-09-21 06:45:00,82.1,79.5,29.77,North,32767,0.0,0.0,92,0.00,,,0.00,Wunderground v.1.15,2013-09-21 11:45:00,
2013-09-21 06:50:00,82.1,79.5,29.77,North,32767,0.0,0.0,92,0.00,,,0.00,Wunderground v.1.15,2013-09-21 11:50:00,
2013-09-21 06:55:00,82.1,79.5,29.77,North,32767,0.0,0.0,92,0.00,,,0.00,Wunderground v.1.15,2013-09-21 11:55:00,
2013-09-21 07:00:00,82.2,79.6,29.78,North,32767,0.0,0.0,92,0.00,,,0.00,Wunderground v.1.15,2013-09-21 12:00:00,
2013-09-21 07:05:00,82.2,79.3,29.78,North,32767,0.0,0.0,91,0.00,,,0.00,Wunderground v.1.15,2013-09-21 12:05:00,
2013-09-21 07:15:00,82.1,79.2,29.78,North,32767,0.0,0.0,91,0.00,,,0.00,Wunderground v.1.15,2013-09-21 12:15:00,
2013-09-21 07:20:00,82.1,79.2,29.78,North,32767,0.0,0.0,91,0.00,,,0.00,Wunderground v.1.15,2013-09-21 12:20:00,
2013-09-21 07:25:00,82.2,79.3,29.78,North,32767,0.0,0.0,91,0.00,,,0.00,Wunderground v.1.15,2013-09-21 12:25:00,
2013-09-21 07:30:00,82.1,79.2,29.77,North,32767,0.0,0.0,91,0.00,,,0.00,Wunderground v.1.15,2013-09-21 12:30:00,
2013-09-21 07:35:00,82.2,79.6,29.78,North,32767,0.0,0.0,92,0.00,,,0.00,Wunderground v.1.15,2013-09-21 12:35:00,
2013-09-21 07:40:00,82.1,79.5,29.78,North,32767,0.0,0.0,92,0.00,,,0.00,Wunderground v.1.15,2013-09-21 12:40:00,
2013-09-21 07:45:00,82.1,79.5,29.78,North,32767,0.0,0.0,92,0.00,,,0.00,Wunderground v.1.15,2013-09-21 12:45:00,
2013-09-21 07:50:00,82.1,79.5,29.78,North,32767,0.0,0.0,92,0.00,,,0.00,Wunderground v.1.15,2013-09-21 12:50:00,
2013-09-21 07:55:00,82.1,79.5,29.78,North,32767,0.0,0.0,92,0.00,,,0.00,Wunderground v.1.15,2013-09-21 12:55:00,
2013-09-21 08:00:00,82.2,79.6,29.78,North,32767,0.0,0.0,92,0.00,,,0.00,Wunderground v.1.15,2013-09-21 13:00:00,
2013-09-21 08:05:00,82.2,79.6,29.78,North,32767,0.0,0.0,92,0.00,,,0.00,Wunderground v.1.15,2013-09-21 13:05:00,
2013-09-21 08:10:00,82.2,79.6,29.78,North,32767,0.0,0.0,92,0.00,,,0.00,Wunderground v.1.15,2013-09-21 13:10:00,
2013-09-21 08:15:00,82.2,79.6,29.78,North,32767,0.0,0.0,92,0.00,,,0.00,Wunderground v.1.15,2013-09-21 13:15:00,
2013-09-21 08:20:00,82.2,80.0,29.78,North,32767,0.0,0.0,93,0.00,,,0.00,Wunderground v.1.15,2013-09-21 13:20:00,
2013-09-21 08:25:00,82.1,79.9,29.77,North,32767,0.0,0.0,93,0.00,,,0.00,Wunderground v.1.15,2013-09-21 13:25:00,
2013-09-21 08:30:00,82.1,79.9,29.78,North,32767,0.0,0.0,93,0.00,,,0.00,Wunderground v.1.15,2013-09-21 13:30:00,
2013-09-21 08:35:00,82.0,79.8,29.78,North,32767,0.0,0.0,93,0.00,,,0.00,Wunderground v.1.15,2013-09-21 13:35:00,
2013-09-21 08:40:00,81.8,79.6,29.78,North,32767,0.0,0.0,93,0.00,,,0.00,Wunderground v.1.15,2013-09-21 13:40:00,
2013-09-21 08:45:00,81.7,79.5,29.78,North,32767,0.0,0.0,93,0.00,,,0.00,Wunderground v.1.15,2013-09-21 13:45:00,
2013-09-21 08:50:00,81.7,79.5,29.78,North,32767,0.0,0.0,93,0.00,,,0.00,Wunderground v.1.15,2013-09-21 13:50:00,
2013-09-21 08:55:00,81.7,79.5,29.78,North,32767,0.0,0.0,93,0.00,,,0.00,Wunderground v.1.15,2013-09-21 13:55:00,
2013-09-21 09:00:00,81.7,79.5,29.78,North,32767,0.0,0.0,93,0.00,,,0.00,Wunderground v.1.15,2013-09-21 14:00:00,
2013-09-21 09:05:00,81.8,79.6,29.78,North,32767,0.0,0.0,93,0.00,,,0.00,Wunderground v.1.15,2013-09-21 14:05:00,
2013-09-21 09:10:00,81.8,79.6,29.78,North,32767,0.0,0.0,93,0.00,,,0.00,Wunderground v.1.15,2013-09-21 14:10:00,
2013-09-21 09:15:00,81.9,79.7,29.78,North,32767,0.0,0.0,93,0.00,,,0.00,Wunderground v.1.15,2013-09-21 14:15:00,
2013-09-21 09:20:00,82.0,79.8,29.78,North,32767,0.0,0.0,93,0.00,,,0.00,Wunderground v.1.15,2013-09-21 14:20:00,
2013-09-21 09:25:00,82.1,79.9,29.79,North,32767,0.0,0.0,93,0.00,,,0.00,Wunderground v.1.15,2013-09-21 14:25:00,
2013-09-21 09:30:00,82.1,79.9,29.79,North,32767,0.0,0.0,93,0.00,,,0.00,Wunderground v.1.15,2013-09-21 14:30:00,
2013-09-21 09:35:00,82.2,80.0,29.79,North,32767,0.0,0.0,93,0.00,,,0.00,Wunderground v.1.15,2013-09-21 14:35:00,
2013-09-21 09:40:00,82.1,79.9,29.79,North,32767,0.0,0.0,93,0.00,,,0.00,Wunderground v.1.15,2013-09-21 14:40:00,
2013-09-21 09:45:00,82.0,79.8,29.79,North,32767,0.0,0.0,93,0.00,,,0.00,Wunderground v.1.15,2013-09-21 14:45:00,
2013-09-21 09:50:00,81.9,80.0,29.79,North,32767,0.0,0.0,94,0.00,,,0.00,Wunderground v.1.15,2013-09-21 14:50:00,
2013-09-21 09:55:00,81.8,79.9,29.79,North,32767,0.0,0.0,94,0.00,,,0.00,Wunderground v.1.15,2013-09-21 14:55:00,
2013-09-21 10:00:00,81.6,80.0,29.80,North,32767,0.0,0.0,95,0.00,,,0.01,Wunderground v.1.15,2013-09-21 15:00:00,
2013-09-21 10:05:00,81.2,79.6,29.80,North,32767,0.0,0.0,95,0.00,,,0.01,Wunderground v.1.15,2013-09-21 15:05:00,
2013-09-21 10:10:00,80.9,79.7,29.79,North,32767,0.0,0.0,96,0.00,,,0.01,Wunderground v.1.15,2013-09-21 15:10:00,
2013-09-21 10:15:00,80.3,78.7,29.80,North,32767,0.0,0.0,95,0.04,,,0.02,Wunderground v.1.15,2013-09-21 15:15:00,
2013-09-21 10:20:00,79.3,77.7,29.80,North,32767,0.0,0.0,95,0.04,,,0.02,Wunderground v.1.15,2013-09-21 15:20:00,
2013-09-21 10:25:00,78.6,77.4,29.80,North,32767,0.0,0.0,96,0.04,,,0.02,Wunderground v.1.15,2013-09-21 15:25:00,
2013-09-21 10:30:00,78.1,76.9,29.80,North,32767,0.0,0.0,96,0.00,,,0.02,Wunderground v.1.15,2013-09-21 15:30:00,
2013-09-21 10:35:00,77.8,76.9,29.80,North,32767,0.0,0.0,97,0.00,,,0.03,Wunderground v.1.15,2013-09-21 15:35:00,
2013-09-21 10:40:00,77.6,76.7,29.80,North,32767,0.0,0.0,97,0.00,,,0.03,Wunderground v.1.15,2013-09-21 15:40:00,
2013-09-21 10:45:00,77.3,76.4,29.81,North,32767,0.0,0.0,97,0.05,,,0.04,Wunderground v.1.15,2013-09-21 15:45:00,
2013-09-21 10:50:00,77.1,76.2,29.81,North,32767,0.0,0.0,97,0.15,,,0.05,Wunderground v.1.15,2013-09-21 15:50:00,
2013-09-21 10:55:00,76.8,75.9,29.80,North,32767,0.0,0.0,97,0.08,,,0.06,Wunderground v.1.15,2013-09-21 15:55:00,
2013-09-21 11:00:00,76.6,75.7,29.80,North,32767,0.0,0.0,97,0.08,,,0.06,Wunderground v.1.15,2013-09-21 16:00:00,
2013-09-21 11:05:00,76.2,75.3,29.81,North,32767,0.0,0.0,97,0.09,,,0.07,Wunderground v.1.15,2013-09-21 16:05:00,
2013-09-21 11:10:00,75.8,74.9,29.80,North,32767,0.0,0.0,97,0.07,,,0.08,Wunderground v.1.15,2013-09-21 16:10:00,
2013-09-21 11:15:00,75.6,74.7,29.80,North,32767,0.0,0.0,97,0.07,,,0.08,Wunderground v.1.15,2013-09-21 16:15:00,
2013-09-21 11:20:00,75.5,74.6,29.80,North,32767,0.0,0.0,97,0.10,,,0.09,Wunderground v.1.15,2013-09-21 16:20:00,
2013-09-21 11:25:00,75.4,74.8,29.79,North,32767,0.0,0.0,98,0.07,,,0.10,Wunderground v.1.15,2013-09-21 16:25:00,
2013-09-21 11:35:00,75.5,74.9,29.78,North,32767,0.0,0.0,98,0.08,,,0.11,Wunderground v.1.15,2013-09-21 16:35:00,
2013-09-21 11:40:00,75.7,75.1,29.78,North,32767,0.0,0.0,98,0.07,,,0.11,Wunderground v.1.15,2013-09-21 16:40:00,
2013-09-21 11:45:00,75.9,75.3,29.78,North,32767,0.0,0.0,98,0.04,,,0.11,Wunderground v.1.15,2013-09-21 16:45:00,
2013-09-21 11:50:00,76.0,75.4,29.77,North,32767,0.0,0.0,98,0.04,,,0.12,Wunderground v.1.15,2013-09-21 16:50:00,
2013-09-21 11:55:00,76.2,75.6,29.77,North,32767,0.0,0.0,98,0.04,,,0.12,Wunderground v.1.15,2013-09-21 16:55:00,
2013-09-21 12:00:00,76.2,75.6,29.77,North,32767,0.0,0.0,98,0.08,,,0.13,Wunderground v.1.15,2013-09-21 17:00:00,
2013-09-21 12:05:00,76.2,75.6,29.77,North,32767,0.0,0.0,98,0.09,,,0.14,Wunderground v.1.15,2013-09-21 17:05:00,
2013-09-21 12:10:00,76.2,75.6,29.76,North,32767,0.0,0.0,98,0.15,,,0.15,Wunderground v.1.15,2013-09-21 17:10:00,
2013-09-21 12:15:00,76.2,75.6,29.76,North,32767,0.0,0.0,98,0.08,,,0.16,Wunderground v.1.15,2013-09-21 17:15:00,
2013-09-21 12:20:00,76.6,76.0,29.76,North,32767,0.0,0.0,98,0.08,,,0.16,Wunderground v.1.15,2013-09-21 17:20:00,
2013-09-21 12:25:00,76.8,76.2,29.76,North,32767,0.0,0.0,98,0.05,,,0.16,Wunderground v.1.15,2013-09-21 17:25:00,
2013-09-21 12:35:00,77.2,76.6,29.76,North,32767,0.0,0.0,98,0.00,,,0.17,Wunderground v.1.15,2013-09-21 17:35:00,
2013-09-21 12:40:00,77.2,76.6,29.76,North,32767,0.0,0.0,98,0.00,,,0.17,Wunderground v.1.15,2013-09-21 17:40:00,
2013-09-21 12:45:00,77.2,76.6,29.76,North,32767,0.0,0.0,98,0.00,,,0.17,Wunderground v.1.15,2013-09-21 17:45:00,
2013-09-21 12:50:00,77.0,76.4,29.76,North,32767,0.0,0.0,98,0.00,,,0.17,Wunderground v.1.15,2013-09-21 17:50:00,
2013-09-21 12:55:00,76.9,76.3,29.76,North,32767,0.0,0.0,98,0.00,,,0.17,Wunderground v.1.15,2013-09-21 17:55:00,
2013-09-21 13:00:00,76.9,76.3,29.76,North,32767,0.0,0.0,98,0.00,,,0.17,Wunderground v.1.15,2013-09-21 18:00:00,
2013-09-21 13:05:00,77.2,76.6,29.76,North,32767,0.0,0.0,98,0.00,,,0.17,Wunderground v.1.15,2013-09-21 18:05:00,
2013-09-21 13:15:00,77.5,76.9,29.76,North,32767,0.0,0.0,98,0.00,,,0.17,Wunderground v.1.15,2013-09-21 18:15:00,
2013-09-21 13:20:00,77.7,77.1,29.76,North,32767,0.0,0.0,98,0.00,,,0.18,Wunderground v.1.15,2013-09-21 18:20:00,
2013-09-21 13:25:00,77.7,77.1,29.76,North,32767,0.0,0.0,98,0.00,,,0.18,Wunderground v.1.15,2013-09-21 18:25:00,
2013-09-21 13:30:00,77.7,77.1,29.76,North,32767,0.0,0.0,98,0.00,,,0.18,Wunderground v.1.15,2013-09-21 18:30:00,
2013-09-21 13:35:00,77.7,77.1,29.76,North,32767,0.0,0.0,98,0.00,,,0.18,Wunderground v.1.15,2013-09-21 18:35:00,
2013-09-21 13:45:00,77.4,76.8,29.76,North,32767,0.0,0.0,98,0.00,,,0.18,Wunderground v.1.15,2013-09-21 18:45:00,
2013-09-21 13:50:00,77.3,76.7,29.76,North,32767,0.0,0.0,98,0.00,,,0.18,Wunderground v.1.15,2013-09-21 18:50:00,
2013-09-21 13:55:00,77.4,76.8,29.76,North,32767,0.0,0.0,98,0.00,,,0.18,Wunderground v.1.15,2013-09-21 18:55:00,
2013-09-21 14:00:00,77.4,76.8,29.75,North,32767,0.0,0.0,98,0.00,,,0.18,Wunderground v.1.15,2013-09-21 19:00:00,
2013-09-21 14:05:00,77.5,76.9,29.75,North,32767,0.0,0.0,98,0.00,,,0.19,Wunderground v.1.15,2013-09-21 19:05:00,
2013-09-21 14:10:00,77.7,77.1,29.75,North,32767,0.0,0.0,98,0.00,,,0.19,Wunderground v.1.15,2013-09-21 19:10:00,
2013-09-21 14:15:00,77.8,77.2,29.75,North,32767,0.0,0.0,98,0.00,,,0.19,Wunderground v.1.15,2013-09-21 19:15:00,
2013-09-21 14:20:00,77.9,77.3,29.75,North,32767,0.0,0.0,98,0.00,,,0.19,Wunderground v.1.15,2013-09-21 19:20:00,
2013-09-21 14:25:00,77.9,77.3,29.75,North,32767,0.0,0.0,98,0.00,,,0.19,Wunderground v.1.15,2013-09-21 19:25:00,
2013-09-21 14:30:00,77.9,77.3,29.75,North,32767,0.0,0.0,98,0.00,,,0.19,Wunderground v.1.15,2013-09-21 19:30:00,
2013-09-21 14:35:00,77.9,77.3,29.75,North,32767,0.0,0.0,98,0.00,,,0.19,Wunderground v.1.15,2013-09-21 19:35:00,
2013-09-21 14:40:00,77.8,77.2,29.74,North,32767,0.0,0.0,98,0.00,,,0.19,Wunderground v.1.15,2013-09-21 19:40:00,
2013-09-21 14:45:00,77.7,77.1,29.74,North,32767,0.0,0.0,98,0.00,,,0.19,Wunderground v.1.15,2013-09-21 19:45:00,
2013-09-21 14:50:00,77.7,77.1,29.74,North,32767,0.0,0.0,98,0.00,,,0.19,Wunderground v.1.15,2013-09-21 19:50:00,
2013-09-21 14:55:00,77.8,77.2,29.74,North,32767,0.0,0.0,98,0.00,,,0.19,Wunderground v.1.15,2013-09-21 19:55:00,
2013-09-21 15:00:00,77.7,77.1,29.74,North,32767,0.0,0.0,98,0.00,,,0.19,Wunderground v.1.15,2013-09-21 20:00:00,
2013-09-21 15:05:00,77.7,77.1,29.73,North,32767,0.0,0.0,98,0.00,,,0.19,Wunderground v.1.15,2013-09-21 20:05:00,
2013-09-21 15:10:00,77.6,77.0,29.73,North,32767,0.0,0.0,98,0.00,,,0.19,Wunderground v.1.15,2013-09-21 20:10:00,
2013-09-21 15:15:00,77.7,77.1,29.73,North,32767,0.0,0.0,98,0.00,,,0.19,Wunderground v.1.15,2013-09-21 20:15:00,
2013-09-21 15:20:00,77.6,77.0,29.74,North,32767,0.0,0.0,98,0.00,,,0.19,Wunderground v.1.15,2013-09-21 20:20:00,
2013-09-21 15:25:00,77.5,76.9,29.74,North,32767,0.0,0.0,98,0.00,,,0.20,Wunderground v.1.15,2013-09-21 20:25:00,
2013-09-21 15:30:00,77.4,76.8,29.74,North,32767,0.0,0.0,98,0.00,,,0.20,Wunderground v.1.15,2013-09-21 20:30:00,
2013-09-21 15:35:00,77.4,76.8,29.73,North,32767,0.0,0.0,98,0.00,,,0.20,Wunderground v.1.15,2013-09-21 20:35:00,
2013-09-21 15:40:00,77.4,76.8,29.73,North,32767,0.0,0.0,98,0.00,,,0.20,Wunderground v.1.15,2013-09-21 20:40:00,
2013-09-21 15:45:00,77.5,76.9,29.73,North,32767,0.0,0.0,98,0.00,,,0.20,Wunderground v.1.15,2013-09-21 20:45:00,
2013-09-21 15:50:00,77.5,76.9,29.73,North,32767,0.0,0.0,98,0.00,,,0.20,Wunderground v.1.15,2013-09-21 20:50:00,
2013-09-21 15:55:00,77.5,76.9,29.73,North,32767,0.0,0.0,98,0.00,,,0.20,Wunderground v.1.15,2013-09-21 20:55:00,
2013-09-21 16:00:00,77.4,76.8,29.73,North,32767,0.0,0.0,98,0.00,,,0.20,Wunderground v.1.15,2013-09-21 21:00:00,
2013-09-21 16:05:00,77.5,76.9,29.73,North,32767,0.0,0.0,98,0.00,,,0.20,Wunderground v.1.15,2013-09-21 21:05:00,
2013-09-21 16:10:00,77.5,76.9,29.72,North,32767,0.0,0.0,98,0.00,,,0.20,Wunderground v.1.15,2013-09-21 21:10:00,
2013-09-21 16:15:00,77.5,76.9,29.72,North,32767,0.0,0.0,98,0.00,,,0.21,Wunderground v.1.15,2013-09-21 21:15:00,
2013-09-21 16:20:00,77.5,76.9,29.72,North,32767,0.0,0.0,98,0.00,,,0.21,Wunderground v.1.15,2013-09-21 21:20:00,
2013-09-21 16:25:00,77.4,76.8,29.72,North,32767,0.0,0.0,98,0.00,,,0.21,Wunderground v.1.15,2013-09-21 21:25:00,
2013-09-21 16:30:00,77.4,76.8,29.71,North,32767,0.0,0.0,98,0.00,,,0.21,Wunderground v.1.15,2013-09-21 21:30:00,
2013-09-21 16:35:00,77.3,76.7,29.71,North,32767,0.0,0.0,98,0.00,,,0.21,Wunderground v.1.15,2013-09-21 21:35:00,
2013-09-21 16:40:00,77.2,76.6,29.71,North,32767,0.0,0.0,98,0.00,,,0.21,Wunderground v.1.15,2013-09-21 21:40:00,
2013-09-21 16:45:00,77.1,76.5,29.71,North,32767,0.0,0.0,98,0.00,,,0.21,Wunderground v.1.15,2013-09-21 21:45:00,
2013-09-21 16:50:00,77.0,76.4,29.71,North,32767,0.0,0.0,98,0.00,,,0.21,Wunderground v.1.15,2013-09-21 21:50:00,
2013-09-21 16:55:00,76.8,76.2,29.70,North,32767,0.0,0.0,98,0.00,,,0.21,Wunderground v.1.15,2013-09-21 21:55:00,
2013-09-21 17:00:00,76.7,76.1,29.70,North,32767,0.0,0.0,98,0.00,,,0.21,Wunderground v.1.15,2013-09-21 22:00:00,
2013-09-21 17:05:00,76.6,76.0,29.70,North,32767,0.0,0.0,98,0.00,,,0.21,Wunderground v.1.15,2013-09-21 22:05:00,
2013-09-21 17:15:00,76.6,76.0,29.71,North,32767,0.0,0.0,98,0.00,,,0.21,Wunderground v.1.15,2013-09-21 22:15:00,
2013-09-21 17:20:00,76.5,75.9,29.71,North,32767,0.0,0.0,98,0.00,,,0.21,Wunderground v.1.15,2013-09-21 22:20:00,
2013-09-21 17:25:00,76.5,75.9,29.71,North,32767,0.0,0.0,98,0.00,,,0.21,Wunderground v.1.15,2013-09-21 22:25:00,
2013-09-21 17:30:00,76.4,75.8,29.70,North,32767,0.0,0.0,98,0.00,,,0.21,Wunderground v.1.15,2013-09-21 22:30:00,
2013-09-21 17:35:00,76.4,75.8,29.70,North,32767,0.0,0.0,98,0.00,,,0.21,Wunderground v.1.15,2013-09-21 22:35:00,
2013-09-21 17:40:00,76.4,75.8,29.70,North,32767,0.0,0.0,98,0.00,,,0.21,Wunderground v.1.15,2013-09-21 22:40:00,
2013-09-21 17:45:00,76.3,75.7,29.71,North,32767,0.0,0.0,98,0.00,,,0.21,Wunderground v.1.15,2013-09-21 22:45:00,
2013-09-21 17:50:00,76.4,75.8,29.70,North,32767,0.0,0.0,98,0.00,,,0.21,Wunderground v.1.15,2013-09-21 22:50:00,
2013-09-21 17:55:00,76.3,75.7,29.70,North,32767,0.0,0.0,98,0.00,,,0.22,Wunderground v.1.15,2013-09-21 22:55:00,
2013-09-21 18:00:00,76.3,75.7,29.70,North,32767,0.0,0.0,98,0.00,,,0.22,Wunderground v.1.15,2013-09-21 23:00:00,
2013-09-21 18:05:00,76.3,75.7,29.71,North,32767,0.0,0.0,98,0.00,,,0.22,Wunderground v.1.15,2013-09-21 23:05:00,
2013-09-21 18:15:00,76.2,75.6,29.71,North,32767,0.0,0.0,98,0.00,,,0.23,Wunderground v.1.15,2013-09-21 23:15:00,
2013-09-21 18:20:00,76.2,75.6,29.71,North,32767,0.0,0.0,98,0.00,,,0.23,Wunderground v.1.15,2013-09-21 23:20:00,
2013-09-21 18:25:00,76.1,75.5,29.71,North,32767,0.0,0.0,98,0.00,,,0.23,Wunderground v.1.15,2013-09-21 23:25:00,
2013-09-21 18:30:00,76.1,75.5,29.71,North,32767,0.0,0.0,98,0.00,,,0.23,Wunderground v.1.15,2013-09-21 23:30:00,
2013-09-21 18:35:00,76.1,75.5,29.71,North,32767,0.0,0.0,98,0.00,,,0.23,Wunderground v.1.15,2013-09-21 23:35:00,
2013-09-21 18:40:00,76.0,75.4,29.71,North,32767,0.0,0.0,98,0.00,,,0.23,Wunderground v.1.15,2013-09-21 23:40:00,
2013-09-21 18:45:00,76.0,75.4,29.72,North,32767,0.0,0.0,98,0.00,,,0.23,Wunderground v.1.15,2013-09-21 23:45:00,
2013-09-21 18:55:00,75.9,75.3,29.72,North,32767,0.0,0.0,98,0.00,,,0.23,Wunderground v.1.15,2013-09-21 23:55:00,
2013-09-21 19:00:00,75.9,75.3,29.73,North,32767,0.0,0.0,98,0.00,,,0.23,Wunderground v.1.15,2013-09-22 00:00:00,
2013-09-21 19:05:00,75.9,75.3,29.73,North,32767,0.0,0.0,98,0.00,,,0.23,Wunderground v.1.15,2013-09-22 00:05:00,
2013-09-21 19:15:00,75.8,75.2,29.72,North,32767,0.0,0.0,98,0.00,,,0.23,Wunderground v.1.15,2013-09-22 00:15:00,
2013-09-21 19:20:00,75.8,75.2,29.73,North,32767,0.0,0.0,98,0.00,,,0.23,Wunderground v.1.15,2013-09-22 00:20:00,
2013-09-21 19:25:00,75.8,75.2,29.72,North,32767,0.0,0.0,98,0.00,,,0.23,Wunderground v.1.15,2013-09-22 00:25:00,
2013-09-21 19:30:00,75.7,75.1,29.73,North,32767,0.0,0.0,98,0.00,,,0.23,Wunderground v.1.15,2013-09-22 00:30:00,
2013-09-21 19:35:00,75.7,75.1,29.73,North,32767,0.0,0.0,98,0.00,,,0.23,Wunderground v.1.15,2013-09-22 00:35:00,
2013-09-21 19:40:00,75.7,75.1,29.73,North,32767,0.0,0.0,98,0.00,,,0.23,Wunderground v.1.15,2013-09-22 00:40:00,
2013-09-21 19:45:00,75.7,75.1,29.73,North,32767,0.0,0.0,98,0.00,,,0.23,Wunderground v.1.15,2013-09-22 00:45:00,
2013-09-21 19:50:00,75.7,75.1,29.73,North,32767,0.0,0.0,98,0.00,,,0.23,Wunderground v.1.15,2013-09-22 00:50:00,
2013-09-21 19:55:00,75.6,75.0,29.73,North,32767,0.0,0.0,98,0.00,,,0.23,Wunderground v.1.15,2013-09-22 00:55:00,
2013-09-21 20:00:00,75.6,75.0,29.73,North,32767,0.0,0.0,98,0.00,,,0.23,Wunderground v.1.15,2013-09-22 01:00:00,
2013-09-21 20:05:00,75.6,75.0,29.74,North,32767,0.0,0.0,98,0.00,,,0.23,Wunderground v.1.15,2013-09-22 01:05:00,
2013-09-21 20:10:00,75.7,75.1,29.74,North,32767,0.0,0.0,98,0.00,,,0.23,Wunderground v.1.15,2013-09-22 01:10:00,
2013-09-21 20:15:00,75.7,75.1,29.74,North,32767,0.0,0.0,98,0.00,,,0.23,Wunderground v.1.15,2013-09-22 01:15:00,
2013-09-21 20:20:00,75.7,75.1,29.74,North,32767,0.0,0.0,98,0.00,,,0.23,Wunderground v.1.15,2013-09-22 01:20:00,
2013-09-21 20:25:00,75.7,75.1,29.74,North,32767,0.0,0.0,98,0.00,,,0.23,Wunderground v.1.15,2013-09-22 01:25:00,
2013-09-21 20:30:00,75.7,75.1,29.74,North,32767,0.0,0.0,98,0.00,,,0.23,Wunderground v.1.15,2013-09-22 01:30:00,
2013-09-21 20:35:00,75.7,75.1,29.74,North,32767,0.0,0.0,98,0.00,,,0.23,Wunderground v.1.15,2013-09-22 01:35:00,
2013-09-21 20:40:00,75.7,75.1,29.74,North,32767,0.0,0.0,98,0.00,,,0.23,Wunderground v.1.15,2013-09-22 01:40:00,
2013-09-21 20:45:00,75.7,75.1,29.74,North,32767,0.0,0.0,98,0.00,,,0.23,Wunderground v.1.15,2013-09-22 01:45:00,
2013-09-21 20:50:00,75.7,75.1,29.74,North,32767,0.0,0.0,98,0.00,,,0.23,Wunderground v.1.15,2013-09-22 01:50:00,
2013-09-21 20:55:00,75.8,75.2,29.74,North,32767,0.0,0.0,98,0.00,,,0.23,Wunderground v.1.15,2013-09-22 01:55:00,
2013-09-21 21:00:00,75.8,75.2,29.74,North,32767,0.0,0.0,98,0.00,,,0.23,Wunderground v.1.15,2013-09-22 02:00:00,
2013-09-21 21:05:00,75.8,75.2,29.74,North,32767,0.0,0.0,98,0.00,,,0.23,Wunderground v.1.15,2013-09-22 02:05:00,
2013-09-21 21:10:00,75.8,75.2,29.74,North,32767,0.0,0.0,98,0.00,,,0.23,Wunderground v.1.15,2013-09-22 02:10:00,
2013-09-21 21:15:00,75.8,75.2,29.74,North,32767,0.0,0.0,98,0.00,,,0.23,Wunderground v.1.15,2013-09-22 02:15:00,
2013-09-21 21:20:00,75.8,75.2,29.74,North,32767,0.0,0.0,98,0.00,,,0.23,Wunderground v.1.15,2013-09-22 02:20:00,
2013-09-21 21:25:00,75.8,75.2,29.74,North,32767,0.0,0.0,98,0.00,,,0.23,Wunderground v.1.15,2013-09-22 02:25:00,
2013-09-21 21:30:00,75.8,75.2,29.74,North,32767,0.0,0.0,98,0.00,,,0.23,Wunderground v.1.15,2013-09-22 02:30:00,
2013-09-21 21:35:00,75.8,75.2,29.74,North,32767,0.0,0.0,98,0.00,,,0.23,Wunderground v.1.15,2013-09-22 02:35:00,
2013-09-21 21:40:00,75.8,75.2,29.75,North,32767,0.0,0.0,98,0.00,,,0.23,Wunderground v.1.15,2013-09-22 02:40:00,
2013-09-21 21:45:00,75.8,75.2,29.74,North,32767,0.0,0.0,98,0.00,,,0.23,Wunderground v.1.15,2013-09-22 02:45:00,
2013-09-21 21:50:00,75.7,75.1,29.75,North,32767,0.0,0.0,98,0.00,,,0.23,Wunderground v.1.15,2013-09-22 02:50:00,
2013-09-21 21:55:00,75.7,75.1,29.75,North,32767,0.0,0.0,98,0.00,,,0.23,Wunderground v.1.15,2013-09-22 02:55:00,
2013-09-21 22:00:00,75.6,75.0,29.75,North,32767,0.0,0.0,98,0.00,,,0.23,Wunderground v.1.15,2013-09-22 03:00:00,
2013-09-21 22:05:00,75.6,75.0,29.74,North,32767,0.0,0.0,98,0.00,,,0.23,Wunderground v.1.15,2013-09-22 03:05:00,
2013-09-21 22:15:00,75.4,74.8,29.75,North,32767,0.0,0.0,98,0.00,,,0.23,Wunderground v.1.15,2013-09-22 03:15:00,
2013-09-21 22:20:00,75.4,74.8,29.75,North,32767,0.0,0.0,98,0.00,,,0.23,Wunderground v.1.15,2013-09-22 03:20:00,
2013-09-21 22:25:00,75.4,74.8,29.75,North,32767,0.0,0.0,98,0.00,,,0.23,Wunderground v.1.15,2013-09-22 03:25:00,
2013-09-21 22:30:00,75.2,74.6,29.75,North,32767,0.0,0.0,98,0.00,,,0.23,Wunderground v.1.15,2013-09-22 03:30:00,
2013-09-21 22:35:00,75.0,74.7,29.75,North,32767,0.0,0.0,99,0.00,,,0.23,Wunderground v.1.15,2013-09-22 03:35:00,
2013-09-21 22:40:00,74.8,74.5,29.75,North,32767,0.0,0.0,99,0.00,,,0.23,Wunderground v.1.15,2013-09-22 03:40:00,
2013-09-21 22:45:00,74.7,74.1,29.75,North,32767,0.0,0.0,98,0.00,,,0.23,Wunderground v.1.15,2013-09-22 03:45:00,
2013-09-21 22:50:00,74.5,73.9,29.75,North,32767,0.0,0.0,98,0.00,,,0.23,Wunderground v.1.15,2013-09-22 03:50:00,
2013-09-21 22:55:00,74.4,74.1,29.75,North,32767,0.0,0.0,99,0.00,,,0.23,Wunderground v.1.15,2013-09-22 03:55:00,
2013-09-21 23:00:00,74.3,74.0,29.75,North,32767,0.0,0.0,99,0.00,,,0.23,Wunderground v.1.15,2013-09-22 04:00:00,
2013-09-21 23:05:00,74.2,73.9,29.75,North,32767,0.0,0.0,99,0.00,,,0.23,Wunderground v.1.15,2013-09-22 04:05:00,
2013-09-21 23:10:00,74.2,73.9,29.75,North,32767,0.0,0.0,99,0.00,,,0.23,Wunderground v.1.15,2013-09-22 04:10:00,
2013-09-21 23:15:00,74.0,73.4,29.75,North,32767,0.0,0.0,98,0.00,,,0.23,Wunderground v.1.15,2013-09-22 04:15:00,
2013-09-21 23:20:00,73.9,73.6,29.75,North,32767,0.0,0.0,99,0.00,,,0.23,Wunderground v.1.15,2013-09-22 04:20:00,
2013-09-21 23:25:00,73.7,73.4,29.75,North,32767,0.0,0.0,99,0.00,,,0.23,Wunderground v.1.15,2013-09-22 04:25:00,
2013-09-21 23:30:00,73.6,73.3,29.74,North,32767,0.0,0.0,99,0.00,,,0.23,Wunderground v.1.15,2013-09-22 04:30:00,
2013-09-21 23:35:00,73.5,73.2,29.74,North,32767,0.0,0.0,99,0.00,,,0.23,Wunderground v.1.15,2013-09-22 04:35:00,
2013-09-21 23:40:00,73.5,73.2,29.75,North,32767,0.0,0.0,99,0.00,,,0.23,Wunderground v.1.15,2013-09-22 04:40:00,
2013-09-21 23:50:00,73.2,72.9,29.75,North,32767,0.0,0.0,99,0.00,,,0.23,Wunderground v.1.15,2013-09-22 04:50:00,
2013-09-21 23:55:00,73.1,72.8,29.75,North,32767,0.0,0.0,99,0.00,,,0.23,Wunderground v.1.15,2013-09-22 04:55:00,